Time;durP1;ratioP1;P1;durP2;ratioP2;P2;SDS_P1;SDS_P2;PMS_P1;PMS_P2;Temp;Humidity;BMP_temperature;BMP_pressure;BME280_temperature;BME280_humidity;BME280_pressure;Samples;Min_cycle;Max_cycle;Signal;HPM_P1;HPM_P2
2023/01/28 00:00:02;;;;;;;5.63;2.03;;;-0.40;99.90;;;;;;6100390;23;20170;-90
2023/01/28 00:02:30;;;;;;;6.17;2.60;;;-0.30;99.90;;;;;;6099520;23;20236;-90
2023/01/28 00:04:57;;;;;;;2.43;1.67;;;-0.30;99.90;;;;;;6100501;23;20172;-90
2023/01/28 00:07:24;;;;;;;6.50;2.20;;;-0.30;99.90;;;;;;6101121;23;20201;-90
2023/01/28 00:09:51;;;;;;;5.87;2.83;;;-0.20;1.00;;;;;;6101133;23;20281;-90
2023/01/28 00:12:18;;;;;;;6.17;2.47;;;-0.20;99.90;;;;;;6099638;23;20258;-89
2023/01/28 00:14:46;;;;;;;4.43;2.53;;;-0.10;1.00;;;;;;6100278;23;20241;-90
2023/01/28 00:17:14;;;;;;;7.33;3.00;;;-0.10;1.00;;;;;;6098561;23;20163;-89
2023/01/28 00:19:43;;;;;;;4.93;2.40;;;-0.10;33.30;;;;;;6099279;23;20171;-90
2023/01/28 00:22:10;;;;;;;6.77;2.50;;;0.00;99.90;;;;;;6099649;23;20231;-89
2023/01/28 00:24:37;;;;;;;3.80;2.10;;;0.00;99.90;;;;;;6099119;23;20167;-91
2023/01/28 00:27:04;;;;;;;2.93;2.27;;;0.10;99.90;;;;;;6098901;23;20215;-90
2023/01/28 00:29:30;;;;;;;4.33;2.30;;;0.20;1.00;;;;;;6098647;23;20168;-89
2023/01/28 00:31:57;;;;;;;3.60;2.30;;;0.20;1.00;;;;;;6098849;23;20221;-89
2023/01/28 00:34:24;;;;;;;4.93;2.50;;;0.30;1.00;;;;;;6098756;23;20210;-90
2023/01/28 00:36:56;;;;;;;5.97;2.13;;;0.40;1.00;;;;;;6098970;23;20203;-91
2023/01/28 00:39:24;;;;;;;3.70;2.30;;;0.40;1.00;;;;;;6099025;23;20199;-89
2023/01/28 00:41:51;;;;;;;4.10;2.70;;;0.40;1.00;;;;;;6098739;23;20172;-90
2023/01/28 00:44:18;;;;;;;4.50;2.17;;;0.40;1.00;;;;;;6098823;23;20200;-90
2023/01/28 00:46:45;;;;;;;4.03;2.33;;;0.40;1.00;;;;;;6098890;23;20195;-90
2023/01/28 00:49:12;;;;;;;4.27;2.23;;;0.50;1.00;;;;;;6098892;23;20173;-91
2023/01/28 00:51:39;;;;;;;6.03;2.33;;;0.50;1.00;;;;;;6098746;23;20171;-89
2023/01/28 00:54:07;;;;;;;3.50;2.27;;;0.50;1.00;;;;;;6098786;23;20542;-90
2023/01/28 07:13:46;;;;;;;5.83;3.00;;;1.60;1.00;;;;;;6095753;23;20269;-90
2023/01/28 07:16:13;;;;;;;8.80;4.77;;;1.70;1.00;;;;;;6095878;23;20162;-89
2023/01/28 07:18:40;;;;;;;7.97;3.07;;;1.70;1.00;;;;;;6097256;23;20176;-91
2023/01/28 07:21:07;;;;;;;3.27;1.60;;;1.70;1.00;;;;;;6097504;23;20176;-90
2023/01/28 07:23:34;;;;;;;6.67;2.97;;;1.70;1.00;;;;;;6097553;23;20509;-91
2023/01/28 07:26:04;;;;;;;1.63;0.93;;;1.70;1.00;;;;;;6098226;23;20176;-91
2023/01/28 07:28:32;;;;;;;1.67;0.90;;;1.70;1.00;;;;;;6098949;23;20193;-91
2023/01/28 07:31:00;;;;;;;39.53;9.27;;;1.70;1.00;;;;;;6099154;23;20648;-90
2023/01/28 07:33:27;;;;;;;6.00;1.90;;;1.80;1.00;;;;;;6099133;23;20240;-90
2023/01/28 07:35:54;;;;;;;4.27;1.27;;;1.80;1.00;;;;;;6099215;23;20168;-90
2023/01/28 07:38:21;;;;;;;4.63;1.73;;;1.80;1.00;;;;;;6099550;23;20171;-91
2023/01/28 07:40:48;;;;;;;1.53;0.97;;;1.90;1.00;;;;;;6098956;23;20185;-90
2023/01/28 07:43:15;;;;;;;30.40;8.87;;;2.00;1.00;;;;;;6098985;23;20178;-91
2023/01/28 07:45:42;;;;;;;17.60;5.40;;;2.00;1.00;;;;;;6098946;23;20177;-90
2023/01/28 07:48:13;;;;;;;13.30;4.57;;;2.00;1.00;;;;;;6099121;23;20229;-90
2023/01/28 07:50:40;;;;;;;9.93;4.13;;;2.00;1.00;;;;;;6099495;23;20166;-90
2023/01/28 07:53:09;;;;;;;17.93;7.93;;;2.00;1.00;;;;;;6099327;23;20545;-90
2023/01/28 07:55:37;;;;;;;46.80;17.10;;;2.00;1.00;;;;;;6099077;23;20175;-91
2023/01/28 07:58:07;;;;;;;8.40;4.03;;;2.10;1.00;;;;;;6098848;23;20174;-90
2023/01/28 08:00:36;;;;;;;9.30;4.73;;;2.10;1.00;;;;;;6099307;23;20233;-91
2023/01/28 08:03:05;;;;;;;6.93;2.73;;;2.10;1.00;;;;;;6099366;23;20552;-91
2023/01/28 08:05:40;;;;;;;11.30;3.10;;;2.20;1.00;;;;;;6099344;23;20234;-91
2023/01/28 08:08:08;;;;;;;12.90;4.37;;;2.20;1.00;;;;;;6098863;23;20216;-91
2023/01/28 08:10:35;;;;;;;38.50;15.03;;;2.30;1.00;;;;;;6098637;23;20184;-91
2023/01/28 08:13:02;;;;;;;17.80;8.33;;;2.40;1.00;;;;;;6098657;23;20199;-91
2023/01/28 08:15:29;;;;;;;26.50;11.40;;;2.50;1.00;;;;;;6098667;23;20185;-90
2023/01/28 08:17:57;;;;;;;24.03;10.57;;;2.50;1.00;;;;;;6098916;23;20174;-91
2023/01/28 08:20:27;;;;;;;22.60;10.17;;;2.60;1.00;;;;;;6098669;23;20172;-91
2023/01/28 08:23:05;;;;;;;18.70;9.40;;;2.70;1.00;;;;;;6098571;23;20178;-91
2023/01/28 08:25:33;;;;;;;20.17;11.53;;;2.70;1.00;;;;;;6098895;23;20265;-90
2023/01/28 08:28:00;;;;;;;25.00;12.93;;;2.80;1.00;;;;;;6098411;23;20243;-91
2023/01/28 08:30:27;;;;;;;24.90;12.27;;;2.80;1.00;;;;;;6098533;23;20622;-90
2023/01/28 08:32:56;;;;;;;30.13;16.63;;;2.90;1.00;;;;;;6098426;23;20232;-90
2023/01/28 08:35:23;;;;;;;15.20;8.03;;;3.00;99.90;;;;;;6098301;23;20176;-90
2023/01/28 08:37:51;;;;;;;15.30;8.67;;;3.00;99.90;;;;;;6098110;23;20199;-90
2023/01/28 08:40:20;;;;;;;9.17;3.90;;;3.10;99.90;;;;;;6098321;23;20182;-90
2023/01/28 08:42:48;;;;;;;6.43;3.33;;;3.10;99.90;;;;;;6098427;23;20172;-90
2023/01/28 08:45:15;;;;;;;6.30;3.70;;;3.20;99.90;;;;;;6098912;23;20175;-91
2023/01/28 08:47:48;;;;;;;3.90;2.00;;;3.30;99.90;;;;;;6098270;23;20188;-91
2023/01/28 08:50:16;;;;;;;9.23;5.03;;;3.30;99.90;;;;;;6098406;23;20163;-90
2023/01/28 08:52:43;;;;;;;20.47;10.07;;;3.40;99.90;;;;;;6098276;23;20175;-90
2023/01/28 08:55:10;;;;;;;25.30;14.53;;;3.40;99.90;;;;;;6098286;23;20223;-91
2023/01/28 08:57:39;;;;;;;53.53;25.97;;;3.50;99.90;;;;;;6098511;23;20502;-90
2023/01/28 09:00:09;;;;;;;90.37;37.47;;;3.50;99.90;;;;;;6098571;23;20176;-90
2023/01/28 09:02:36;;;;;;;82.70;35.97;;;3.50;99.90;;;;;;6098523;23;20493;-89
2023/01/28 09:05:04;;;;;;;45.83;21.63;;;3.50;99.90;;;;;;6098388;23;20175;-90
2023/01/28 09:07:31;;;;;;;35.33;15.20;;;3.60;99.90;;;;;;6096628;23;20263;-91
2023/01/28 09:09:58;;;;;;;21.47;10.40;;;3.70;99.90;;;;;;6097239;23;20199;-89
2023/01/28 09:12:25;;;;;;;31.30;13.77;;;3.80;99.90;;;;;;6097829;23;20677;-90
2023/01/28 09:17:44;;;;;;;6.37;3.53;;;3.90;99.90;;;;;;6097558;23;20160;-90
2023/01/28 09:20:12;;;;;;;14.23;6.93;;;4.00;67.20;;;;;;6098116;23;20542;-90
2023/01/28 09:22:39;;;;;;;12.83;5.57;;;4.00;1.00;;;;;;6097649;23;20175;-89
2023/01/28 09:25:07;;;;;;;45.13;19.90;;;3.90;1.00;;;;;;6097910;23;20171;-90
2023/01/28 09:27:34;;;;;;;12.20;6.00;;;3.90;1.00;;;;;;6098008;23;20191;-90
2023/01/28 09:30:03;;;;;;;11.13;5.03;;;3.90;1.00;;;;;;6097529;23;20175;-90
2023/01/28 09:32:30;;;;;;;3.40;1.87;;;4.00;1.00;;;;;;6097570;23;20175;-90
2023/01/28 09:34:57;;;;;;;7.87;4.17;;;4.00;1.00;;;;;;6097557;23;20175;-90
2023/01/28 09:37:24;;;;;;;5.70;2.47;;;4.00;1.00;;;;;;6097016;23;20168;-91
2023/01/28 09:39:51;;;;;;;14.47;6.10;;;4.00;1.00;;;;;;6098234;23;20175;-90
2023/01/28 09:42:34;;;;;;;6.00;2.90;;;4.00;1.00;;;;;;6097555;23;20175;-90
2023/01/28 09:45:11;;;;;;;10.17;5.87;;;3.90;1.00;;;;;;6097392;23;20159;-90
2023/01/28 09:47:42;;;;;;;5.50;2.97;;;3.90;1.00;;;;;;6096660;23;20186;-91
2023/01/28 09:50:15;;;;;;;6.63;3.47;;;3.80;1.00;;;;;;6096232;23;20655;-91
2023/01/28 09:52:42;;;;;;;5.77;2.47;;;3.70;1.00;;;;;;6096907;23;20638;-90
2023/01/28 09:55:19;;;;;;;10.97;6.30;;;3.70;1.00;;;;;;6096449;23;20210;-90
2023/01/28 09:57:51;;;;;;;16.70;8.17;;;3.60;1.00;;;;;;6096660;23;20485;-90
2023/01/28 10:00:22;;;;;;;34.77;16.50;;;3.70;1.00;;;;;;6096259;23;20214;-91
2023/01/28 10:03:05;;;;;;;18.47;8.87;;;3.80;1.00;;;;;;6096362;23;20165;-90
2023/01/28 10:05:39;;;;;;;14.90;7.90;;;3.70;1.00;;;;;;6096672;23;20578;-90
2023/01/28 10:08:18;;;;;;;16.53;8.00;;;3.80;1.00;;;;;;6096510;23;20230;-91
2023/01/28 10:10:50;;;;;;;10.57;4.43;;;3.90;1.00;;;;;;6096176;23;20156;-90
2023/01/28 10:13:28;;;;;;;10.93;4.90;;;3.90;1.00;;;;;;6095796;23;20203;-89
2023/01/28 10:16:09;;;;;;;10.33;5.07;;;3.90;1.00;;;;;;6096139;23;20606;-89
2023/01/28 10:18:43;;;;;;;6.43;3.03;;;3.90;1.00;;;;;;6096280;23;20156;-89
2023/01/28 10:21:16;;;;;;;24.17;13.73;;;3.90;1.00;;;;;;6096242;23;20163;-90
2023/01/28 10:23:52;;;;;;;7.47;4.63;;;3.90;1.00;;;;;;6096671;23;20167;-90
2023/01/28 10:26:24;;;;;;;7.40;4.13;;;4.00;1.00;;;;;;6096153;23;20159;-90
2023/01/28 10:28:56;;;;;;;3.87;2.83;;;4.00;1.00;;;;;;6096522;23;20250;-89
2023/01/28 10:31:32;;;;;;;25.17;10.37;;;4.10;1.00;;;;;;6096478;23;20159;-90
2023/01/28 10:33:59;;;;;;;76.63;25.27;;;4.10;1.00;;;;;;6095843;23;20210;-90
2023/01/28 10:36:27;;;;;;;35.07;12.93;;;4.20;1.00;;;;;;6095552;23;20222;-89
2023/01/28 10:38:54;;;;;;;37.97;14.20;;;4.20;1.00;;;;;;6095744;23;20182;-90
2023/01/28 10:41:24;;;;;;;21.33;8.00;;;4.20;1.00;;;;;;6096323;23;20175;-89
2023/01/28 10:43:51;;;;;;;43.13;16.87;;;4.20;1.00;;;;;;6096078;23;20242;-88
2023/01/28 10:46:22;;;;;;;28.17;11.30;;;4.20;1.00;;;;;;6095571;23;20475;-89
2023/01/28 10:48:56;;;;;;;17.07;6.90;;;4.20;1.00;;;;;;6095953;23;20231;-89
2023/01/28 10:51:32;;;;;;;2.87;1.60;;;4.20;1.00;;;;;;6096413;23;20605;-89
2023/01/28 10:53:59;;;;;;;9.37;4.43;;;4.20;1.00;;;;;;6096538;23;20558;-89
2023/01/28 10:56:28;;;;;;;52.40;18.03;;;4.20;1.00;;;;;;6097112;23;20176;-89
2023/01/28 10:59:00;;;;;;;14.50;5.97;;;4.20;1.00;;;;;;6097107;23;20172;-89
2023/01/28 11:01:39;;;;;;;23.73;10.00;;;4.20;1.00;;;;;;6096592;23;20541;-88
2023/01/28 11:04:17;;;;;;;15.07;7.17;;;4.30;1.00;;;;;;6096660;23;20159;-89
2023/01/28 11:06:53;;;;;;;18.03;7.23;;;4.30;1.00;;;;;;6096533;23;20621;-89
2023/01/28 11:09:24;;;;;;;10.57;5.57;;;4.40;1.00;;;;;;6096700;23;20230;-88
2023/01/28 11:11:51;;;;;;;42.57;14.23;;;4.40;1.00;;;;;;6096450;23;20695;-89
2023/01/28 11:14:24;;;;;;;16.80;5.40;;;4.50;1.00;;;;;;6097080;23;20548;-89
2023/01/28 11:16:52;;;;;;;9.87;4.83;;;4.50;1.00;;;;;;6097088;23;20530;-89
2023/01/28 11:19:33;;;;;;;16.10;6.93;;;4.50;1.00;;;;;;6096739;23;20172;-88
2023/01/28 11:22:01;;;;;;;15.93;7.30;;;4.60;1.00;;;;;;6096550;23;20683;-88
2023/01/28 11:24:32;;;;;;;14.23;6.60;;;4.60;1.00;;;;;;6096797;23;20176;-89
2023/01/28 11:27:13;;;;;;;19.83;10.07;;;4.70;1.00;;;;;;6096855;23;20160;-89
2023/01/28 11:29:41;;;;;;;63.73;26.53;;;4.70;1.00;;;;;;6096719;23;20175;-89
2023/01/28 11:32:18;;;;;;;11.03;4.90;;;4.80;1.00;;;;;;6094926;23;20553;-89
2023/01/28 11:34:52;;;;;;;14.07;5.67;;;4.80;1.00;;;;;;6096257;23;20155;-89
2023/01/28 11:37:21;;;;;;;7.57;3.77;;;4.80;1.00;;;;;;6094175;23;20545;-89
2023/01/28 11:39:48;;;;;;;15.27;7.30;;;4.80;1.00;;;;;;6093410;23;20665;-88
2023/01/28 11:42:18;;;;;;;11.27;6.70;;;4.80;1.00;;;;;;6095339;23;20175;-88
2023/01/28 11:44:45;;;;;;;13.13;6.70;;;4.90;1.00;;;;;;6096295;23;20553;-88
2023/01/28 11:47:26;;;;;;;15.73;9.07;;;4.90;1.00;;;;;;6096008;23;20224;-88
2023/01/28 11:50:05;;;;;;;9.03;5.67;;;4.90;1.00;;;;;;6096442;23;20223;-88
2023/01/28 11:52:44;;;;;;;10.30;6.07;;;4.90;1.00;;;;;;6097039;23;20501;-93
2023/01/28 11:55:22;;;;;;;8.27;3.80;;;4.90;1.00;;;;;;6097549;23;20164;-95
2023/01/28 11:58:01;;;;;;;7.23;4.03;;;4.90;1.00;;;;;;6097516;23;20214;-93
2023/01/28 12:00:40;;;;;;;16.30;7.93;;;4.80;1.00;;;;;;6098435;23;20156;-95
2023/01/28 12:03:27;;;;;;;12.67;6.67;;;4.80;1.00;;;;;;6097842;23;20160;-95
2023/01/28 12:06:12;;;;;;;12.60;5.53;;;4.80;1.00;;;;;;6098601;23;20161;-93
2023/01/28 12:08:45;;;;;;;11.50;6.20;;;4.80;1.00;;;;;;6098339;23;20258;-94
2023/01/28 12:14:20;;;;;;;16.33;7.73;;;4.70;1.00;;;;;;6098568;23;20223;-94
2023/01/28 12:17:08;;;;;;;15.07;7.13;;;4.70;1.00;;;;;;6099850;23;20221;-93
2023/01/28 12:19:53;;;;;;;12.90;6.80;;;4.60;1.00;;;;;;6099821;23;20155;-94
2023/01/28 12:22:47;;;;;;;17.13;9.47;;;4.60;1.00;;;;;;6099796;23;20152;-94
2023/01/28 12:25:24;;;;;;;19.03;8.87;;;4.60;1.00;;;;;;6099390;23;20560;-94
2023/01/28 12:28:01;;;;;;;17.33;9.37;;;4.60;1.00;;;;;;6099993;23;20218;-94
2023/01/28 12:30:40;;;;;;;14.90;8.87;;;4.60;1.00;;;;;;6099744;23;20210;-93
2023/01/28 12:33:31;;;;;;;15.47;7.73;;;4.60;1.00;;;;;;6099604;23;20162;-95
2023/01/28 12:36:09;;;;;;;14.37;8.13;;;4.60;1.00;;;;;;6099564;23;20160;-95
2023/01/28 12:38:48;;;;;;;13.93;7.97;;;4.60;1.00;;;;;;6099487;23;20231;-93
2023/01/28 12:41:18;;;;;;;12.00;7.80;;;4.60;1.00;;;;;;6100141;23;20230;-93
2023/01/28 12:43:55;;;;;;;16.83;10.17;;;4.60;1.00;;;;;;6099419;23;20226;-94
2023/01/28 12:46:41;;;;;;;22.13;10.40;;;4.60;1.00;;;;;;6099871;23;20187;-94
2023/01/28 12:49:14;;;;;;;26.10;11.83;;;4.60;1.00;;;;;;6099221;23;20190;-95
2023/01/28 12:51:51;;;;;;;24.63;12.23;;;4.50;1.00;;;;;;6102807;23;20167;-96
2023/01/28 12:54:24;;;;;;;11.70;7.60;;;4.50;1.00;;;;;;6099478;23;20598;-95
2023/01/28 12:56:54;;;;;;;16.23;7.70;;;4.50;1.00;;;;;;6099442;23;20178;-95
2023/01/28 12:59:28;;;;;;;15.07;6.93;;;4.50;1.00;;;;;;6098904;23;20318;-95
2023/01/28 13:02:05;;;;;;;10.67;6.13;;;4.50;1.00;;;;;;6105827;23;20661;-96
2023/01/28 13:04:39;;;;;;;12.40;6.60;;;4.40;1.00;;;;;;6107001;23;20167;-96
2023/01/28 13:07:12;;;;;;;15.93;9.97;;;4.40;1.00;;;;;;6110999;23;20174;-95
2023/01/28 13:09:48;;;;;;;16.33;10.43;;;4.30;1.00;;;;;;6103072;23;20246;-95
2023/01/28 13:12:16;;;;;;;12.23;7.93;;;4.30;1.00;;;;;;6102903;23;20661;-95
2023/01/28 13:14:44;;;;;;;6.40;4.43;;;4.20;1.00;;;;;;6100687;23;20172;-96
2023/01/28 13:17:13;;;;;;;14.17;9.47;;;4.20;1.00;;;;;;6101616;23;20175;-96
2023/01/28 13:19:41;;;;;;;14.23;8.70;;;4.10;1.00;;;;;;6100357;23;20193;-96
2023/01/28 13:22:13;;;;;;;20.80;11.80;;;4.00;1.00;;;;;;6103644;23;20167;-95
2023/01/28 13:24:42;;;;;;;15.60;9.87;;;3.80;1.00;;;;;;6101724;23;20208;-95
2023/01/28 13:27:22;;;;;;;18.20;11.03;;;3.80;1.00;;;;;;6102160;23;20171;-96
2023/01/28 13:30:00;;;;;;;38.60;19.47;;;3.70;1.00;;;;;;6100014;23;20187;-96
2023/01/28 13:32:33;;;;;;;25.43;13.40;;;3.70;1.00;;;;;;6100737;23;20165;-96
2023/01/28 13:35:04;;;;;;;15.50;7.77;;;3.70;1.00;;;;;;6099912;23;20539;-94
2023/01/28 13:37:34;;;;;;;22.70;12.23;;;3.70;1.00;;;;;;6101456;23;20191;-94
2023/01/28 13:40:25;;;;;;;14.70;8.40;;;3.70;1.00;;;;;;6100202;23;20175;-95
2023/01/28 13:43:01;;;;;;;20.77;10.77;;;3.60;1.00;;;;;;6101006;23;20171;-95
2023/01/28 13:45:29;;;;;;;26.23;12.83;;;3.60;1.00;;;;;;6098665;23;20178;-96
2023/01/28 13:48:02;;;;;;;19.50;10.30;;;3.60;1.00;;;;;;6106160;23;20171;-95
2023/01/28 13:50:39;;;;;;;21.10;8.67;;;3.60;1.00;;;;;;6110232;23;20167;-96
2023/01/28 13:53:20;;;;;;;19.60;11.43;;;3.60;1.00;;;;;;6100252;23;20163;-96
2023/01/28 13:55:51;;;;;;;20.83;10.00;;;3.70;1.00;;;;;;6099400;23;20171;-96
2023/01/28 13:58:50;;;;;;;24.60;16.27;;;3.60;1.00;;;;;;6101391;23;20171;-96
2023/01/28 14:01:41;;;;;;;21.70;14.27;;;3.60;1.00;;;;;;6102743;23;20167;-96
2023/01/28 14:04:43;;;;;;;11.57;6.70;;;3.60;1.00;;;;;;6100893;23;20171;-96
2023/01/28 14:07:20;;;;;;;12.47;6.80;;;3.50;1.00;;;;;;6011549;23;20208;-95
2023/01/28 14:10:11;;;;;;;17.33;8.00;;;3.50;1.00;;;;;;6011927;23;20680;-96
2023/01/28 14:13:11;;;;;;;10.67;6.03;;;3.40;1.00;;;;;;6025982;23;20200;-96
2023/01/28 14:15:53;;;;;;;13.50;5.63;;;3.50;1.00;;;;;;6039139;23;20224;-95
2023/01/28 14:18:26;;;;;;;17.17;8.43;;;3.40;1.00;;;;;;6038880;23;20673;-94
2023/01/28 14:20:56;;;;;;;17.20;9.83;;;3.40;1.00;;;;;;6039670;23;20164;-96
2023/01/28 14:23:25;;;;;;;11.70;6.87;;;3.50;1.00;;;;;;6038876;23;20176;-96
2023/01/28 14:26:07;;;;;;;4.07;2.47;;;3.50;1.00;;;;;;6039720;23;20192;-95
2023/01/28 14:28:41;;;;;;;6.83;3.77;;;3.40;1.00;;;;;;6038478;23;20228;-95
2023/01/28 14:31:16;;;;;;;9.30;5.00;;;3.40;1.00;;;;;;6038869;23;20226;-95
2023/01/28 14:33:43;;;;;;;9.37;5.33;;;3.40;1.00;;;;;;6039007;23;20604;-95
2023/01/28 14:36:11;;;;;;;10.37;5.70;;;3.40;1.00;;;;;;6039895;23;20177;-96
2023/01/28 14:38:41;;;;;;;19.67;9.23;;;3.50;1.00;;;;;;6042304;23;20172;-96
2023/01/28 14:41:10;;;;;;;12.20;3.73;;;3.40;1.00;;;;;;6051072;23;20180;-96
2023/01/28 14:43:39;;;;;;;11.13;6.97;;;3.40;1.00;;;;;;6069699;23;20569;-95
2023/01/28 14:46:19;;;;;;;43.23;17.27;;;3.50;1.00;;;;;;6069555;23;20713;-96
2023/01/28 14:48:56;;;;;;;25.60;8.43;;;3.40;1.00;;;;;;6070186;23;20191;-95
2023/01/28 14:52:08;;;;;;;25.50;7.40;;;3.40;1.00;;;;;;6070129;23;20179;-95
2023/01/28 14:54:47;;;;;;;75.40;21.10;;;3.40;1.00;;;;;;5954005;24;20174;-94
2023/01/28 14:57:37;;;;;;;44.73;16.37;;;3.40;1.00;;;;;;5954985;24;20171;-94
2023/01/28 15:00:16;;;;;;;60.30;16.67;;;3.40;1.00;;;;;;5954053;24;20175;-95
2023/01/28 15:02:44;;;;;;;76.53;24.00;;;3.40;1.00;;;;;;5954543;24;20170;-96
2023/01/28 15:05:16;;;;;;;83.27;21.37;;;3.40;1.00;;;;;;5956210;24;20174;-94
2023/01/28 15:07:45;;;;;;;118.73;34.50;;;3.40;1.00;;;;;;5954351;24;20247;-95
2023/01/28 15:10:18;;;;;;;56.53;21.80;;;3.30;1.00;;;;;;5954085;24;20190;-95
2023/01/28 15:12:49;;;;;;;52.83;17.53;;;3.30;1.00;;;;;;5954284;24;20205;-93
2023/01/28 15:15:21;;;;;;;42.20;14.53;;;3.20;1.00;;;;;;5953837;24;20171;-94
2023/01/28 15:17:49;;;;;;;30.47;9.43;;;3.20;1.00;;;;;;5954608;24;20183;-94
2023/01/28 15:20:19;;;;;;;51.37;20.63;;;3.10;1.00;;;;;;5954153;24;20175;-94
2023/01/28 15:22:46;;;;;;;25.17;12.33;;;3.10;1.00;;;;;;5953638;24;20179;-94
2023/01/28 15:25:17;;;;;;;16.27;8.33;;;3.00;1.00;;;;;;5953778;24;20485;-94
2023/01/28 15:27:44;;;;;;;32.00;16.83;;;2.90;1.00;;;;;;5954356;24;20163;-95
2023/01/28 15:30:21;;;;;;;48.37;23.13;;;2.80;1.00;;;;;;6019132;23;20195;-94
2023/01/28 15:32:57;;;;;;;10.90;5.47;;;2.70;1.00;;;;;;6069918;23;20536;-93
2023/01/28 15:35:25;;;;;;;65.13;32.40;;;2.70;1.00;;;;;;6069546;23;20160;-94
2023/01/28 15:37:52;;;;;;;29.33;16.40;;;2.70;1.00;;;;;;6069468;23;20228;-94
2023/01/28 15:40:21;;;;;;;26.47;14.13;;;2.60;1.00;;;;;;6069807;23;20227;-94
2023/01/28 15:42:49;;;;;;;21.93;12.23;;;2.60;1.00;;;;;;6069635;23;20178;-94
2023/01/28 15:45:18;;;;;;;25.03;13.87;;;2.50;1.00;;;;;;6069059;23;20171;-93
2023/01/28 15:47:46;;;;;;;12.57;6.67;;;2.50;1.00;;;;;;6071133;23;20172;-94
2023/01/28 15:50:20;;;;;;;11.43;7.70;;;2.40;1.00;;;;;;6071260;23;20192;-94
2023/01/28 15:52:48;;;;;;;12.97;7.37;;;2.40;1.00;;;;;;6071549;23;20232;-94
2023/01/28 15:55:37;;;;;;;10.87;6.40;;;2.40;1.00;;;;;;6071313;23;20227;-95
2023/01/28 15:58:18;;;;;;;9.87;4.60;;;2.30;1.00;;;;;;6065738;23;20172;-92
2023/01/28 16:00:45;;;;;;;8.37;4.93;;;2.30;1.00;;;;;;6071210;23;20191;-94
2023/01/28 16:03:19;;;;;;;7.67;4.60;;;2.30;1.00;;;;;;6071432;23;20202;-95
2023/01/28 16:05:59;;;;;;;29.97;10.10;;;2.30;1.00;;;;;;6071797;23;20201;-95
2023/01/28 16:08:38;;;;;;;11.80;5.83;;;2.30;1.00;;;;;;6071063;23;20207;-94
2023/01/28 16:11:06;;;;;;;15.07;6.10;;;2.30;1.00;;;;;;6072775;23;20222;-96
2023/01/28 16:13:34;;;;;;;24.00;10.43;;;2.30;1.00;;;;;;6098631;23;20210;-95
2023/01/28 16:16:03;;;;;;;25.10;10.33;;;2.30;1.00;;;;;;6101059;23;20175;-95
2023/01/28 16:18:39;;;;;;;42.13;17.03;;;2.30;1.00;;;;;;6100791;23;20169;-95
2023/01/28 16:21:10;;;;;;;31.97;12.63;;;2.20;1.00;;;;;;6099725;23;20308;-96
2023/01/28 16:23:38;;;;;;;44.77;15.53;;;2.30;1.00;;;;;;6100030;23;20155;-96
2023/01/28 16:26:07;;;;;;;102.43;33.50;;;2.20;1.00;;;;;;6099221;23;20178;-95
2023/01/28 16:28:34;;;;;;;110.67;38.50;;;2.20;1.00;;;;;;6099601;23;20170;-96
2023/01/28 16:31:01;;;;;;;140.37;42.20;;;2.20;1.00;;;;;;6099682;23;20650;-95
2023/01/28 16:33:28;;;;;;;63.23;21.67;;;2.20;1.00;;;;;;6099989;23;20179;-96
2023/01/28 16:35:55;;;;;;;82.27;24.83;;;2.20;1.00;;;;;;6098289;23;20189;-96
2023/01/28 16:38:23;;;;;;;43.23;14.67;;;2.20;1.00;;;;;;6098560;23;20168;-95
2023/01/28 16:40:50;;;;;;;148.90;44.10;;;2.30;1.00;;;;;;6099211;23;20177;-95
2023/01/28 16:43:17;;;;;;;116.53;32.17;;;2.20;1.00;;;;;;6098552;23;20185;-95
2023/01/28 16:45:45;;;;;;;28.27;10.30;;;2.20;1.00;;;;;;6098903;23;20178;-94
2023/01/28 16:48:13;;;;;;;30.70;12.20;;;2.10;1.00;;;;;;6099421;23;20239;-96
2023/01/28 16:50:41;;;;;;;44.57;17.30;;;2.10;1.00;;;;;;6098769;23;20194;-95
2023/01/28 16:53:20;;;;;;;30.27;12.47;;;2.20;1.00;;;;;;6098973;23;20174;-95
2023/01/28 16:55:49;;;;;;;53.17;21.67;;;2.10;1.00;;;;;;6099276;23;20172;-95
2023/01/28 16:58:19;;;;;;;27.20;11.50;;;2.20;1.00;;;;;;6098547;23;20232;-94
2023/01/28 17:00:46;;;;;;;18.37;9.37;;;2.20;1.00;;;;;;6099004;23;20176;-95
2023/01/28 17:03:13;;;;;;;18.00;8.97;;;2.20;1.00;;;;;;6098964;23;20208;-95
2023/01/28 17:05:40;;;;;;;14.47;6.93;;;2.20;7.80;;;;;;6098833;23;20178;-94
2023/01/28 17:08:07;;;;;;;10.73;6.23;;;2.20;17.40;;;;;;6098803;23;20174;-95
2023/01/28 17:10:34;;;;;;;37.30;17.77;;;2.20;26.60;;;;;;6099316;23;20719;-95
2023/01/28 17:13:02;;;;;;;23.07;9.73;;;2.20;31.20;;;;;;6098231;23;20568;-93
2023/01/28 17:15:29;;;;;;;18.67;8.27;;;2.20;44.90;;;;;;6098861;23;20179;-92
2023/01/28 17:17:56;;;;;;;11.17;5.63;;;2.10;44.90;;;;;;6098774;23;20216;-95
2023/01/28 17:20:23;;;;;;;14.60;7.63;;;2.10;61.50;;;;;;6098520;23;20177;-93
2023/01/28 17:22:50;;;;;;;22.83;9.80;;;2.10;63.00;;;;;;6099336;23;20175;-94
2023/01/28 17:25:17;;;;;;;17.23;9.47;;;2.10;54.20;;;;;;6098290;23;20174;-92
2023/01/28 17:27:44;;;;;;;10.83;6.53;;;2.10;45.40;;;;;;6098540;23;20183;-92
2023/01/28 17:30:14;;;;;;;38.23;15.83;;;2.10;34.70;;;;;;6098104;23;20189;-93
2023/01/28 17:32:41;;;;;;;29.17;14.70;;;2.10;6.70;;;;;;6098880;23;20174;-93
2023/01/28 17:35:11;;;;;;;36.63;21.10;;;2.00;1.00;;;;;;6098572;23;20175;-92
2023/01/28 17:37:38;;;;;;;32.67;17.10;;;1.90;1.00;;;;;;6097873;23;20180;-92
2023/01/28 17:40:06;;;;;;;21.33;10.87;;;2.00;1.00;;;;;;6097215;23;20250;-90
2023/01/28 17:42:33;;;;;;;22.03;12.67;;;1.90;1.00;;;;;;6096407;23;20177;-92
2023/01/28 17:45:02;;;;;;;31.20;14.23;;;1.80;1.00;;;;;;6097288;23;20236;-91
2023/01/28 17:47:31;;;;;;;21.53;11.20;;;1.80;1.00;;;;;;6097473;23;20179;-92
2023/01/28 17:49:58;;;;;;;26.90;12.97;;;1.80;1.00;;;;;;6097109;23;20216;-91
2023/01/28 17:52:25;;;;;;;17.67;10.10;;;1.80;1.00;;;;;;6096580;23;20179;-92
2023/01/28 17:54:52;;;;;;;23.80;10.40;;;1.80;1.00;;;;;;6097349;23;20257;-92
2023/01/28 17:57:19;;;;;;;24.50;12.83;;;1.80;1.00;;;;;;6095869;23;20174;-92
2023/01/28 17:59:46;;;;;;;21.07;9.60;;;1.70;1.00;;;;;;6097223;23;20245;-91
2023/01/28 18:02:14;;;;;;;15.73;8.00;;;1.70;1.00;;;;;;6096791;23;20174;-91
2023/01/28 18:04:43;;;;;;;21.17;9.83;;;1.70;1.00;;;;;;6097367;23;20203;-92
2023/01/28 18:07:10;;;;;;;18.97;10.27;;;1.60;1.00;;;;;;6097515;23;20252;-91
2023/01/28 18:09:38;;;;;;;17.60;9.97;;;1.70;1.00;;;;;;6097491;23;20194;-91
2023/01/28 18:12:05;;;;;;;10.67;5.77;;;1.70;1.00;;;;;;6098387;23;20196;-91
2023/01/28 18:14:33;;;;;;;15.83;6.53;;;1.70;1.00;;;;;;6098217;23;20250;-91
2023/01/28 18:17:00;;;;;;;32.80;13.20;;;1.70;1.00;;;;;;6097784;23;20173;-91
2023/01/28 18:19:27;;;;;;;32.20;14.33;;;1.80;1.00;;;;;;6097515;23;20182;-92
2023/01/28 18:21:55;;;;;;;17.23;8.03;;;1.80;1.00;;;;;;6097834;23;20587;-90
2023/01/28 18:24:24;;;;;;;7.27;4.87;;;1.80;1.00;;;;;;6097885;23;20177;-92
2023/01/28 18:26:51;;;;;;;10.97;5.90;;;1.80;1.00;;;;;;6098514;23;20177;-91
2023/01/28 18:29:19;;;;;;;5.93;3.77;;;1.80;1.00;;;;;;6097825;23;20229;-93
2023/01/28 18:31:47;;;;;;;11.30;5.63;;;1.80;1.00;;;;;;6097834;23;20186;-92
2023/01/28 18:34:14;;;;;;;13.97;6.20;;;1.80;1.00;;;;;;6097888;23;20182;-92
2023/01/28 18:36:41;;;;;;;8.23;4.50;;;1.80;1.00;;;;;;6097707;23;20171;-92
2023/01/28 18:39:12;;;;;;;7.07;3.50;;;1.80;1.00;;;;;;6097981;23;20181;-93
2023/01/28 18:41:39;;;;;;;5.50;2.87;;;1.80;1.00;;;;;;6097885;23;20165;-93
2023/01/28 18:44:07;;;;;;;6.13;3.67;;;1.80;1.00;;;;;;6097784;23;20178;-93
2023/01/28 18:46:35;;;;;;;5.37;2.97;;;1.70;1.00;;;;;;6096244;23;20186;-92
2023/01/28 18:49:02;;;;;;;6.30;3.33;;;1.70;1.00;;;;;;6096844;23;20176;-92
2023/01/28 18:51:29;;;;;;;9.83;4.93;;;1.70;1.00;;;;;;6097375;23;20306;-94
2023/01/28 18:53:57;;;;;;;13.90;6.20;;;1.70;1.00;;;;;;6097026;23;20217;-93
2023/01/28 18:56:26;;;;;;;9.50;5.30;;;1.60;1.00;;;;;;6097304;23;20189;-93
2023/01/28 18:58:56;;;;;;;8.73;5.80;;;1.60;1.00;;;;;;6096970;23;20231;-93
2023/01/28 19:01:23;;;;;;;10.13;5.03;;;1.60;1.00;;;;;;6096676;23;20169;-94
2023/01/28 19:03:50;;;;;;;9.70;4.97;;;1.60;1.00;;;;;;6097488;23;20182;-94
2023/01/28 19:06:17;;;;;;;7.77;4.10;;;1.60;1.00;;;;;;6097138;23;20221;-93
2023/01/28 19:08:44;;;;;;;8.80;4.20;;;1.60;1.00;;;;;;6098392;23;20195;-95
2023/01/28 19:11:11;;;;;;;8.97;4.33;;;1.60;1.00;;;;;;6097435;23;20193;-93
2023/01/28 19:13:39;;;;;;;9.93;4.70;;;1.50;1.00;;;;;;6097863;23;20200;-94
2023/01/28 19:16:06;;;;;;;8.90;5.07;;;1.50;1.00;;;;;;6098347;23;20617;-92
2023/01/28 19:18:34;;;;;;;9.90;4.80;;;1.50;1.00;;;;;;6097265;23;20186;-94
2023/01/28 19:21:05;;;;;;;13.67;6.13;;;1.40;1.00;;;;;;6097705;23;20230;-92
2023/01/28 19:23:32;;;;;;;11.37;5.90;;;1.40;1.00;;;;;;6100291;23;20345;-94
2023/01/28 19:26:03;;;;;;;10.63;6.03;;;1.30;1.00;;;;;;6099941;23;20548;-93
2023/01/28 19:28:32;;;;;;;12.47;6.33;;;1.20;1.00;;;;;;6100223;23;20220;-94
2023/01/28 19:31:01;;;;;;;11.93;6.57;;;1.20;1.00;;;;;;6101668;23;20189;-93
2023/01/28 19:33:28;;;;;;;12.97;6.70;;;1.10;1.00;;;;;;6099671;23;20172;-94
2023/01/28 19:35:56;;;;;;;12.23;6.87;;;1.10;1.00;;;;;;6098633;23;20178;-95
2023/01/28 19:38:23;;;;;;;13.03;6.93;;;1.10;1.00;;;;;;6099354;23;20550;-95